Schedule Details


Flight Number: CTN481
Departure: Kastrup (EKCH) at 11:20
Arrival: Franjo Tudman (LDZA) at 13:25
Route: BALOX?M736?SALLO?UM44?KOGIM?UM725?HDO?M725?VOZ?Z21?PISAM?DCT?PUBEG?DCT?PETOV

Weather Information
EKCH 112150Z AUTO 36014KT 9999 SCT200/// BKN230/// 14/10 Q1004 NOSIG
LDZA 112200Z 24014KT 200V280 CAVOK 20/11 Q1007 BECMG 24008KT
Schedule Frequency

Route Map